Akron Canton Regional Airport Akron US
ICAO: KCAK
IATA: CAK
Category: Medium
Scheduled Services: Yes

Elevation: 1228 ft
TransAlt. 18000 ft.

Airport Communications:
APP/DEP:32.3
APP/DEP:118.6
ATIS:121.05
CLNC DEL:132.05
GND:121.7
ARNG OPS:41.1
CLEVELAND RDO:114.4
TWR:118.3
UNICOM:122.95

KCAK Zoom In..

Runways:

(A) RW 01 length 7601 ft width 150 ft
ILS 109.50 / hdg 9

(B) RW 05 length 8204 ft width 150 ft
ILS 108.30 / hdg 54

(C) RW 19 length 7601 ft width 150 ft
ILS 109.50 / hdg 189

(D) RW 23 length 8204 ft width 150 ft
ILS 108.30 / hdg 234

Location; KCAK
Day. 22 / Time. 00.51 Zulu
* Altimeter: 30.37
* Temperature: 09° c. 48.2°f.
* Wind from: 360° Speed 06 kn.
Dewpoint: -04° c.
Visibility: 10 Statute Miles.
Clouds: Broken 15000 ft.
Clouds: Overcast 25000 ft.

KCAK 220051Z 36006KT 10SM BKN150 OVC250 09/M04 A3037 RMK AO2 SLP290 T00941039


Wind From 360°
Speed 06 kn.

  YouTube Music Video
 
jpsmedia.com for Web Design  worldairports.se 2018   terms of use